sensor_id;sensor_type;location;lat;lon;timestamp;P1;P2;P0
72031;PMS5003;49185;42.320;23.198;2024-03-23T00:55:20;2689.00;2689.00;2689.00
72031;PMS5003;49185;42.320;23.198;2024-03-23T00:58:06;2675.00;2675.00;2675.00
72031;PMS5003;49185;42.320;23.198;2024-03-23T01:00:52;2686.00;2686.00;2686.00
72031;PMS5003;49185;42.320;23.198;2024-03-23T01:03:37;2687.50;2687.50;2687.50
72031;PMS5003;49185;42.320;23.198;2024-03-23T01:06:23;2686.00;2686.00;2686.00
72031;PMS5003;49185;42.320;23.198;2024-03-23T01:09:09;2682.00;2682.00;2682.00
72031;PMS5003;49185;42.320;23.198;2024-03-23T01:11:54;2665.00;2665.00;2665.00
72031;PMS5003;49185;42.320;23.198;2024-03-23T01:14:40;2670.50;2670.50;2670.50
72031;PMS5003;49185;42.320;23.198;2024-03-23T01:17:26;2662.00;2662.00;2662.00
72031;PMS5003;49185;42.320;23.198;2024-03-23T01:20:11;2668.50;2668.50;2668.50
72031;PMS5003;49185;42.320;23.198;2024-03-23T01:22:57;2651.50;2651.50;2651.50
72031;PMS5003;49185;42.320;23.198;2024-03-23T01:25:43;2651.50;2651.50;2651.50
72031;PMS5003;49185;42.320;23.198;2024-03-23T01:28:28;2662.00;2662.00;2662.00
72031;PMS5003;49185;42.320;23.198;2024-03-23T01:31:14;2648.00;2648.00;2648.00
72031;PMS5003;49185;42.320;23.198;2024-03-23T01:33:59;2640.00;2640.00;2640.00
72031;PMS5003;49185;42.320;23.198;2024-03-23T01:36:45;2653.00;2653.00;2653.00
72031;PMS5003;49185;42.320;23.198;2024-03-23T01:39:31;2640.00;2640.00;2640.00
72031;PMS5003;49185;42.320;23.198;2024-03-23T01:42:16;2651.50;2651.50;2651.50
72031;PMS5003;49185;42.320;23.198;2024-03-23T01:45:02;2650.00;2650.00;2650.00
72031;PMS5003;49185;42.320;23.198;2024-03-23T01:47:52;2648.00;2648.00;2648.00
72031;PMS5003;49185;42.320;23.198;2024-03-23T01:50:38;2651.50;2651.50;2651.50
72031;PMS5003;49185;42.320;23.198;2024-03-23T01:53:24;2636.00;2636.00;2636.00
72031;PMS5003;49185;42.320;23.198;2024-03-23T01:56:10;2645.00;2645.00;2645.00
72031;PMS5003;49185;42.320;23.198;2024-03-23T01:58:56;2633.00;2633.00;2633.00
72031;PMS5003;49185;42.320;23.198;2024-03-23T02:01:42;2641.50;2641.50;2641.50
72031;PMS5003;49185;42.320;23.198;2024-03-23T02:04:27;2626.00;2626.00;2626.00
72031;PMS5003;49185;42.320;23.198;2024-03-23T02:07:13;2638.00;2638.00;2638.00
72031;PMS5003;49185;42.320;23.198;2024-03-23T02:09:59;2640.00;2640.00;2640.00
72031;PMS5003;49185;42.320;23.198;2024-03-23T02:12:44;2624.50;2624.50;2624.50
72031;PMS5003;49185;42.320;23.198;2024-03-23T02:15:30;2634.50;2634.50;2634.50
72031;PMS5003;49185;42.320;23.198;2024-03-23T02:18:16;2634.50;2634.50;2634.50
72031;PMS5003;49185;42.320;23.198;2024-03-23T02:21:01;2624.50;2624.50;2624.50
72031;PMS5003;49185;42.320;23.198;2024-03-23T02:23:47;2634.50;2634.50;2634.50
72031;PMS5003;49185;42.320;23.198;2024-03-23T02:26:33;2633.00;2633.00;2633.00
72031;PMS5003;49185;42.320;23.198;2024-03-23T02:29:19;2628.00;2628.00;2628.00
72031;PMS5003;49185;42.320;23.198;2024-03-23T02:32:04;2633.00;2633.00;2633.00
72031;PMS5003;49185;42.320;23.198;2024-03-23T02:34:50;2631.50;2631.50;2631.50
72031;PMS5003;49185;42.320;23.198;2024-03-23T02:37:36;2631.50;2631.50;2631.50
72031;PMS5003;49185;42.320;23.198;2024-03-23T02:40:22;2621.50;2621.50;2621.50
72031;PMS5003;49185;42.320;23.198;2024-03-23T02:43:08;2616.50;2616.50;2616.50
72031;PMS5003;49185;42.320;23.198;2024-03-23T02:45:54;2614.50;2614.50;2614.50
72031;PMS5003;49185;42.320;23.198;2024-03-23T02:48:40;2611.50;2611.50;2611.50
72031;PMS5003;49185;42.320;23.198;2024-03-23T02:51:25;2624.50;2624.50;2624.50
72031;PMS5003;49185;42.320;23.198;2024-03-23T02:54:11;2621.50;2621.50;2621.50
72031;PMS5003;49185;42.320;23.198;2024-03-23T02:56:56;2614.50;2614.50;2614.50
72031;PMS5003;49185;42.320;23.198;2024-03-23T02:59:42;2613.00;2613.00;2613.00
72031;PMS5003;49185;42.320;23.198;2024-03-23T03:02:28;2624.50;2624.50;2624.50
72031;PMS5003;49185;42.320;23.198;2024-03-23T03:05:13;2621.50;2621.50;2621.50
72031;PMS5003;49185;42.320;23.198;2024-03-23T03:07:59;2608.50;2608.50;2608.50
72031;PMS5003;49185;42.320;23.198;2024-03-23T03:10:45;2616.50;2616.50;2616.50
72031;PMS5003;49185;42.320;23.198;2024-03-23T03:13:30;2605.00;2605.00;2605.00
72031;PMS5003;49185;42.320;23.198;2024-03-23T03:16:16;2614.50;2614.50;2614.50
72031;PMS5003;49185;42.320;23.198;2024-03-23T03:19:02;2605.00;2605.00;2605.00
72031;PMS5003;49185;42.320;23.198;2024-03-23T03:21:47;2601.50;2601.50;2601.50
72031;PMS5003;49185;42.320;23.198;2024-03-23T03:24:33;2611.50;2611.50;2611.50
72031;PMS5003;49185;42.320;23.198;2024-03-23T03:27:19;2600.00;2600.00;2600.00
72031;PMS5003;49185;42.320;23.198;2024-03-23T03:30:04;2598.50;2598.50;2598.50
72031;PMS5003;49185;42.320;23.198;2024-03-23T03:32:51;2610.00;2610.00;2610.00
72031;PMS5003;49185;42.320;23.198;2024-03-23T03:35:38;2597.00;2597.00;2597.00
72031;PMS5003;49185;42.320;23.198;2024-03-23T03:38:24;2605.00;2605.00;2605.00
72031;PMS5003;49185;42.320;23.198;2024-03-23T03:41:10;2595.50;2595.50;2595.50
72031;PMS5003;49185;42.320;23.198;2024-03-23T03:43:55;2592.00;2592.00;2592.00
72031;PMS5003;49185;42.320;23.198;2024-03-23T03:46:41;2587.50;2587.50;2587.50
72031;PMS5003;49185;42.320;23.198;2024-03-23T03:49:27;2590.50;2590.50;2590.50
72031;PMS5003;49185;42.320;23.198;2024-03-23T03:52:12;2592.00;2592.00;2592.00
72031;PMS5003;49185;42.320;23.198;2024-03-23T03:55:01;2598.50;2598.50;2598.50
72031;PMS5003;49185;42.320;23.198;2024-03-23T03:57:47;2589.00;2589.00;2589.00
72031;PMS5003;49185;42.320;23.198;2024-03-23T04:00:33;2587.00;2587.00;2587.00
72031;PMS5003;49185;42.320;23.198;2024-03-23T04:03:19;2585.50;2585.50;2585.50
72031;PMS5003;49185;42.320;23.198;2024-03-23T04:06:04;2587.50;2587.50;2587.50
72031;PMS5003;49185;42.320;23.198;2024-03-23T04:08:50;2601.50;2601.50;2601.50
72031;PMS5003;49185;42.320;23.198;2024-03-23T04:11:36;2593.50;2593.50;2593.50
72031;PMS5003;49185;42.320;23.198;2024-03-23T04:14:21;2601.50;2601.50;2601.50
72031;PMS5003;49185;42.320;23.198;2024-03-23T04:17:07;2592.00;2592.00;2592.00
72031;PMS5003;49185;42.320;23.198;2024-03-23T04:19:53;2601.50;2601.50;2601.50
72031;PMS5003;49185;42.320;23.198;2024-03-23T04:22:38;2603.50;2603.50;2603.50
72031;PMS5003;49185;42.320;23.198;2024-03-23T04:25:24;2605.00;2605.00;2605.00
72031;PMS5003;49185;42.320;23.198;2024-03-23T04:28:10;2603.50;2603.50;2603.50
72031;PMS5003;49185;42.320;23.198;2024-03-23T04:30:56;2595.50;2595.50;2595.50
72031;PMS5003;49185;42.320;23.198;2024-03-23T04:33:41;2598.50;2598.50;2598.50
72031;PMS5003;49185;42.320;23.198;2024-03-23T04:36:27;2608.50;2608.50;2608.50
72031;PMS5003;49185;42.320;23.198;2024-03-23T04:39:13;2608.50;2608.50;2608.50
72031;PMS5003;49185;42.320;23.198;2024-03-23T04:41:58;2598.50;2598.50;2598.50
72031;PMS5003;49185;42.320;23.198;2024-03-23T04:44:44;2598.50;2598.50;2598.50
72031;PMS5003;49185;42.320;23.198;2024-03-23T04:47:30;2601.50;2601.50;2601.50
72031;PMS5003;49185;42.320;23.198;2024-03-23T04:50:15;2618.50;2618.50;2618.50
72031;PMS5003;49185;42.320;23.198;2024-03-23T04:53:01;2608.50;2608.50;2608.50
72031;PMS5003;49185;42.320;23.198;2024-03-23T04:55:47;2616.50;2616.50;2616.50
72031;PMS5003;49185;42.320;23.198;2024-03-23T04:58:32;2634.50;2634.50;2634.50
72031;PMS5003;49185;42.320;23.198;2024-03-23T05:01:18;2624.50;2624.50;2624.50
72031;PMS5003;49185;42.320;23.198;2024-03-23T05:04:04;2624.50;2624.50;2624.50
72031;PMS5003;49185;42.320;23.198;2024-03-23T05:06:49;2638.00;2638.00;2638.00
72031;PMS5003;49185;42.320;23.198;2024-03-23T05:09:35;2643.00;2643.00;2643.00
72031;PMS5003;49185;42.320;23.198;2024-03-23T05:12:21;2631.50;2631.50;2631.50
72031;PMS5003;49185;42.320;23.198;2024-03-23T05:15:06;2643.00;2643.00;2643.00
72031;PMS5003;49185;42.320;23.198;2024-03-23T05:17:52;2645.00;2645.00;2645.00
72031;PMS5003;49185;42.320;23.198;2024-03-23T05:20:38;2645.00;2645.00;2645.00
72031;PMS5003;49185;42.320;23.198;2024-03-23T05:23:24;2645.00;2645.00;2645.00
72031;PMS5003;49185;42.320;23.198;2024-03-23T05:26:10;2651.50;2651.50;2651.50
72031;PMS5003;49185;42.320;23.198;2024-03-23T05:28:56;2648.00;2648.00;2648.00
72031;PMS5003;49185;42.320;23.198;2024-03-23T05:31:41;2665.00;2665.00;2665.00
72031;PMS5003;49185;42.320;23.198;2024-03-23T05:34:27;2662.00;2662.00;2662.00
72031;PMS5003;49185;42.320;23.198;2024-03-23T05:37:13;2684.00;2684.00;2684.00
72031;PMS5003;49185;42.320;23.198;2024-03-23T05:39:58;2694.50;2694.50;2694.50
72031;PMS5003;49185;42.320;23.198;2024-03-23T05:42:44;2699.50;2699.50;2699.50
72031;PMS5003;49185;42.320;23.198;2024-03-23T05:45:30;2727.50;2727.50;2727.50
72031;PMS5003;49185;42.320;23.198;2024-03-23T05:48:15;2777.00;2777.00;2777.00
72031;PMS5003;49185;42.320;23.198;2024-03-23T05:51:01;2820.50;2820.50;2820.50
72031;PMS5003;49185;42.320;23.198;2024-03-23T05:53:47;2871.00;2871.00;2871.00
72031;PMS5003;49185;42.320;23.198;2024-03-23T05:56:32;2909.00;2909.00;2909.00
72031;PMS5003;49185;42.320;23.198;2024-03-23T05:59:18;2950.00;2950.00;2950.00
72031;PMS5003;49185;42.320;23.198;2024-03-23T06:02:04;2969.00;2969.00;2969.00
72031;PMS5003;49185;42.320;23.198;2024-03-23T06:04:49;2997.00;2997.00;2997.00
72031;PMS5003;49185;42.320;23.198;2024-03-23T06:07:35;3020.50;3020.50;3020.50
72031;PMS5003;49185;42.320;23.198;2024-03-23T06:10:21;3097.00;3097.00;3097.00
72031;PMS5003;49185;42.320;23.198;2024-03-23T06:13:06;3129.50;3129.50;3129.50
72031;PMS5003;49185;42.320;23.198;2024-03-23T06:15:52;3151.00;3151.00;3151.00
72031;PMS5003;49185;42.320;23.198;2024-03-23T06:18:39;3148.50;3148.50;3148.50
72031;PMS5003;49185;42.320;23.198;2024-03-23T06:21:24;3189.50;3189.50;3189.50
72031;PMS5003;49185;42.320;23.198;2024-03-23T06:24:13;3189.50;3189.50;3189.50
72031;PMS5003;49185;42.320;23.198;2024-03-23T06:26:58;3189.50;3189.50;3189.50
72031;PMS5003;49185;42.320;23.198;2024-03-23T06:29:44;3211.50;3211.50;3211.50
72031;PMS5003;49185;42.320;23.198;2024-03-23T06:32:30;3113.00;3113.00;3113.00
72031;PMS5003;49185;42.320;23.198;2024-03-23T06:35:15;3231.50;3231.50;3231.50
72031;PMS5003;49185;42.320;23.198;2024-03-23T06:38:01;3231.50;3231.50;3231.50
72031;PMS5003;49185;42.320;23.198;2024-03-23T06:40:47;3234.00;3234.00;3234.00
72031;PMS5003;49185;42.320;23.198;2024-03-23T06:43:32;3209.50;3209.50;3209.50
72031;PMS5003;49185;42.320;23.198;2024-03-23T06:46:18;3234.00;3234.00;3234.00
72031;PMS5003;49185;42.320;23.198;2024-03-23T06:49:04;3264.50;3264.50;3264.50
72031;PMS5003;49185;42.320;23.198;2024-03-23T06:51:49;3231.50;3231.50;3231.50
72031;PMS5003;49185;42.320;23.198;2024-03-23T06:54:35;3267.00;3267.00;3267.00
72031;PMS5003;49185;42.320;23.198;2024-03-23T06:57:21;3269.50;3269.50;3269.50
72031;PMS5003;49185;42.320;23.198;2024-03-23T07:00:07;3288.00;3288.00;3288.00
72031;PMS5003;49185;42.320;23.198;2024-03-23T07:02:53;3283.00;3283.00;3283.00
72031;PMS5003;49185;42.320;23.198;2024-03-23T07:05:38;3234.00;3234.00;3234.00
72031;PMS5003;49185;42.320;23.198;2024-03-23T07:08:24;3216.50;3216.50;3216.50
72031;PMS5003;49185;42.320;23.198;2024-03-23T07:11:10;3221.50;3221.50;3221.50
72031;PMS5003;49185;42.320;23.198;2024-03-23T07:13:56;3257.00;3257.00;3257.00
72031;PMS5003;49185;42.320;23.198;2024-03-23T07:16:41;3269.50;3269.50;3269.50
72031;PMS5003;49185;42.320;23.198;2024-03-23T07:19:27;3285.50;3285.50;3285.50
72031;PMS5003;49185;42.320;23.198;2024-03-23T07:22:12;3285.50;3285.50;3285.50
72031;PMS5003;49185;42.320;23.198;2024-03-23T07:25:01;3189.50;3189.50;3189.50
72031;PMS5003;49185;42.320;23.198;2024-03-23T07:27:47;3293.00;3293.00;3293.00
72031;PMS5003;49185;42.320;23.198;2024-03-23T07:30:33;3280.50;3280.50;3280.50
72031;PMS5003;49185;42.320;23.198;2024-03-23T07:33:19;3314.00;3314.00;3314.00
72031;PMS5003;49185;42.320;23.198;2024-03-23T07:36:04;3267.50;3267.50;3267.50
72031;PMS5003;49185;42.320;23.198;2024-03-23T07:38:50;3283.00;3283.00;3283.00
72031;PMS5003;49185;42.320;23.198;2024-03-23T07:41:36;3280.50;3280.50;3280.50
72031;PMS5003;49185;42.320;23.198;2024-03-23T07:44:21;3303.50;3303.50;3303.50
72031;PMS5003;49185;42.320;23.198;2024-03-23T07:47:07;3288.00;3288.00;3288.00
72031;PMS5003;49185;42.320;23.198;2024-03-23T07:49:53;3316.50;3316.50;3316.50
72031;PMS5003;49185;42.320;23.198;2024-03-23T07:52:38;3316.50;3316.50;3316.50
72031;PMS5003;49185;42.320;23.198;2024-03-23T07:55:24;3314.00;3314.00;3314.00
72031;PMS5003;49185;42.320;23.198;2024-03-23T07:58:10;3311.50;3311.50;3311.50
72031;PMS5003;49185;42.320;23.198;2024-03-23T08:00:56;3262.50;3262.50;3262.50
72031;PMS5003;49185;42.320;23.198;2024-03-23T08:03:49;3290.50;3290.50;3290.50
72031;PMS5003;49185;42.320;23.198;2024-03-23T08:06:35;3296.00;3296.00;3296.00
72031;PMS5003;49185;42.320;23.198;2024-03-23T08:09:20;3254.50;3254.50;3254.50
72031;PMS5003;49185;42.320;23.198;2024-03-23T08:12:06;3303.50;3303.50;3303.50
72031;PMS5003;49185;42.320;23.198;2024-03-23T08:14:52;3298.50;3298.50;3298.50
72031;PMS5003;49185;42.320;23.198;2024-03-23T08:17:38;3317.00;3317.00;3317.00
72031;PMS5003;49185;42.320;23.198;2024-03-23T08:20:23;3259.50;3259.50;3259.50
72031;PMS5003;49185;42.320;23.198;2024-03-23T08:23:09;3314.00;3314.00;3314.00
72031;PMS5003;49185;42.320;23.198;2024-03-23T08:25:58;3303.50;3303.50;3303.50
72031;PMS5003;49185;42.320;23.198;2024-03-23T08:28:44;3265.00;3265.00;3265.00
72031;PMS5003;49185;42.320;23.198;2024-03-23T08:31:30;3282.50;3282.50;3282.50
72031;PMS5003;49185;42.320;23.198;2024-03-23T08:34:16;3269.50;3269.50;3269.50
72031;PMS5003;49185;42.320;23.198;2024-03-23T08:37:01;3316.50;3316.50;3316.50
72031;PMS5003;49185;42.320;23.198;2024-03-23T08:39:47;3311.50;3311.50;3311.50
72031;PMS5003;49185;42.320;23.198;2024-03-23T08:42:33;3277.50;3277.50;3277.50
72031;PMS5003;49185;42.320;23.198;2024-03-23T08:45:18;3306.50;3306.50;3306.50
72031;PMS5003;49185;42.320;23.198;2024-03-23T08:48:04;3257.00;3257.00;3257.00
72031;PMS5003;49185;42.320;23.198;2024-03-23T08:51:00;3301.00;3301.00;3301.00
72031;PMS5003;49185;42.320;23.198;2024-03-23T08:53:52;3249.50;3249.50;3249.50
72031;PMS5003;49185;42.320;23.198;2024-03-23T08:56:38;3316.50;3316.50;3316.50
72031;PMS5003;49185;42.320;23.198;2024-03-23T08:59:24;3301.00;3301.00;3301.00
72031;PMS5003;49185;42.320;23.198;2024-03-23T09:02:09;3236.50;3236.50;3236.50
72031;PMS5003;49185;42.320;23.198;2024-03-23T09:04:55;3252.00;3252.00;3252.00
72031;PMS5003;49185;42.320;23.198;2024-03-23T09:07:40;3267.00;3267.00;3267.00
72031;PMS5003;49185;42.320;23.198;2024-03-23T09:10:26;3290.50;3290.50;3290.50
72031;PMS5003;49185;42.320;23.198;2024-03-23T09:13:12;3219.00;3219.00;3219.00
72031;PMS5003;49185;42.320;23.198;2024-03-23T09:15:57;3146.50;3146.50;3146.50
72031;PMS5003;49185;42.320;23.198;2024-03-23T09:18:43;3265.00;3265.00;3265.00
72031;PMS5003;49185;42.320;23.198;2024-03-23T09:21:29;3272.50;3272.50;3272.50
72031;PMS5003;49185;42.320;23.198;2024-03-23T09:24:14;3155.50;3155.50;3155.50
72031;PMS5003;49185;42.320;23.198;2024-03-23T09:27:01;3155.50;3155.50;3155.50
72031;PMS5003;49185;42.320;23.198;2024-03-23T09:29:47;3155.50;3155.50;3155.50
72031;PMS5003;49185;42.320;23.198;2024-03-23T09:32:32;3197.00;3197.00;3197.00
72031;PMS5003;49185;42.320;23.198;2024-03-23T09:35:18;3204.00;3204.00;3204.00
72031;PMS5003;49185;42.320;23.198;2024-03-23T09:38:05;3231.50;3231.50;3231.50
72031;PMS5003;49185;42.320;23.198;2024-03-23T09:40:52;3293.00;3293.00;3293.00
72031;PMS5003;49185;42.320;23.198;2024-03-23T09:43:38;3231.50;3231.50;3231.50
72031;PMS5003;49185;42.320;23.198;2024-03-23T09:46:24;3262.00;3262.00;3262.00
72031;PMS5003;49185;42.320;23.198;2024-03-23T09:49:10;3254.00;3254.00;3254.00
72031;PMS5003;49185;42.320;23.198;2024-03-23T09:51:56;3298.50;3298.50;3298.50
72031;PMS5003;49185;42.320;23.198;2024-03-23T09:54:41;3216.50;3216.50;3216.50
72031;PMS5003;49185;42.320;23.198;2024-03-23T09:57:27;3231.50;3231.50;3231.50
72031;PMS5003;49185;42.320;23.198;2024-03-23T10:00:13;3264.50;3264.50;3264.50
72031;PMS5003;49185;42.320;23.198;2024-03-23T10:02:59;3293.00;3293.00;3293.00
72031;PMS5003;49185;42.320;23.198;2024-03-23T10:05:45;3249.00;3249.00;3249.00
72031;PMS5003;49185;42.320;23.198;2024-03-23T10:08:31;3231.50;3231.50;3231.50
72031;PMS5003;49185;42.320;23.198;2024-03-23T10:11:16;3275.00;3275.00;3275.00
72031;PMS5003;49185;42.320;23.198;2024-03-23T10:14:02;3249.00;3249.00;3249.00
72031;PMS5003;49185;42.320;23.198;2024-03-23T10:16:48;3272.50;3272.50;3272.50
72031;PMS5003;49185;42.320;23.198;2024-03-23T10:19:34;3259.50;3259.50;3259.50
72031;PMS5003;49185;42.320;23.198;2024-03-23T10:22:20;3288.00;3288.00;3288.00
72031;PMS5003;49185;42.320;23.198;2024-03-23T10:25:07;3244.50;3244.50;3244.50
72031;PMS5003;49185;42.320;23.198;2024-03-23T10:27:59;3231.50;3231.50;3231.50
72031;PMS5003;49185;42.320;23.198;2024-03-23T10:30:46;3274.50;3274.50;3274.50
72031;PMS5003;49185;42.320;23.198;2024-03-23T10:33:31;3254.00;3254.00;3254.00
72031;PMS5003;49185;42.320;23.198;2024-03-23T10:36:18;3262.00;3262.00;3262.00
72031;PMS5003;49185;42.320;23.198;2024-03-23T10:39:05;3241.50;3241.50;3241.50
72031;PMS5003;49185;42.320;23.198;2024-03-23T10:41:53;3267.00;3267.00;3267.00
72031;PMS5003;49185;42.320;23.198;2024-03-23T10:44:41;3282.50;3282.50;3282.50
72031;PMS5003;49185;42.320;23.198;2024-03-23T10:47:27;3264.50;3264.50;3264.50
72031;PMS5003;49185;42.320;23.198;2024-03-23T10:50:12;3241.50;3241.50;3241.50
72031;PMS5003;49185;42.320;23.198;2024-03-23T10:52:58;3236.50;3236.50;3236.50
72031;PMS5003;49185;42.320;23.198;2024-03-23T10:55:44;3224.00;3224.00;3224.00
72031;PMS5003;49185;42.320;23.198;2024-03-23T11:01:29;3251.50;3251.50;3251.50
72031;PMS5003;49185;42.320;23.198;2024-03-23T11:04:28;3244.00;3244.00;3244.00
72031;PMS5003;49185;42.320;23.198;2024-03-23T11:07:33;3262.00;3262.00;3262.00
72031;PMS5003;49185;42.320;23.198;2024-03-23T11:10:31;3277.50;3277.50;3277.50
72031;PMS5003;49185;42.320;23.198;2024-03-23T11:13:25;3277.50;3277.50;3277.50
72031;PMS5003;49185;42.320;23.198;2024-03-23T11:25:30;3272.50;3272.50;3272.50
72031;PMS5003;49185;42.320;23.198;2024-03-23T11:28:16;3285.00;3285.00;3285.00
72031;PMS5003;49185;42.320;23.198;2024-03-23T11:31:10;3254.00;3254.00;3254.00
72031;PMS5003;49185;42.320;23.198;2024-03-23T11:34:15;3282.50;3282.50;3282.50
72031;PMS5003;49185;42.320;23.198;2024-03-23T11:37:20;3267.50;3267.50;3267.50
72031;PMS5003;49185;42.320;23.198;2024-03-23T11:40:34;3288.00;3288.00;3288.00
72031;PMS5003;49185;42.320;23.198;2024-03-23T11:43:32;3285.00;3285.00;3285.00
72031;PMS5003;49185;42.320;23.198;2024-03-23T11:46:24;3287.50;3287.50;3287.50
72031;PMS5003;49185;42.320;23.198;2024-03-23T11:49:22;3259.50;3259.50;3259.50
72031;PMS5003;49185;42.320;23.198;2024-03-23T11:52:11;3272.50;3272.50;3272.50
72031;PMS5003;49185;42.320;23.198;2024-03-23T11:55:04;3290.50;3290.50;3290.50
72031;PMS5003;49185;42.320;23.198;2024-03-23T11:57:50;3290.50;3290.50;3290.50
72031;PMS5003;49185;42.320;23.198;2024-03-23T12:00:36;3285.00;3285.00;3285.00
72031;PMS5003;49185;42.320;23.198;2024-03-23T12:03:22;3251.50;3251.50;3251.50
72031;PMS5003;49185;42.320;23.198;2024-03-23T12:06:08;3277.50;3277.50;3277.50
72031;PMS5003;49185;42.320;23.198;2024-03-23T12:08:54;3290.00;3290.00;3290.00
72031;PMS5003;49185;42.320;23.198;2024-03-23T12:11:51;3288.00;3288.00;3288.00
72031;PMS5003;49185;42.320;23.198;2024-03-23T12:14:36;3272.50;3272.50;3272.50
72031;PMS5003;49185;42.320;23.198;2024-03-23T12:17:22;3285.00;3285.00;3285.00
72031;PMS5003;49185;42.320;23.198;2024-03-23T12:20:08;3285.00;3285.00;3285.00
72031;PMS5003;49185;42.320;23.198;2024-03-23T12:23:04;3290.00;3290.00;3290.00
72031;PMS5003;49185;42.320;23.198;2024-03-23T12:25:58;3236.50;3236.50;3236.50
72031;PMS5003;49185;42.320;23.198;2024-03-23T12:29:01;3285.00;3285.00;3285.00
72031;PMS5003;49185;42.320;23.198;2024-03-23T12:31:47;3262.00;3262.00;3262.00
72031;PMS5003;49185;42.320;23.198;2024-03-23T12:34:33;3293.00;3293.00;3293.00
72031;PMS5003;49185;42.320;23.198;2024-03-23T12:37:18;3275.00;3275.00;3275.00
72031;PMS5003;49185;42.320;23.198;2024-03-23T12:40:04;3219.00;3219.00;3219.00
72031;PMS5003;49185;42.320;23.198;2024-03-23T12:42:50;3254.50;3254.50;3254.50
72031;PMS5003;49185;42.320;23.198;2024-03-23T12:45:36;3256.50;3256.50;3256.50
72031;PMS5003;49185;42.320;23.198;2024-03-23T12:48:22;3277.50;3277.50;3277.50
72031;PMS5003;49185;42.320;23.198;2024-03-23T12:51:08;3288.00;3288.00;3288.00
72031;PMS5003;49185;42.320;23.198;2024-03-23T12:53:53;3236.50;3236.50;3236.50
72031;PMS5003;49185;42.320;23.198;2024-03-23T12:56:39;3314.00;3314.00;3314.00
72031;PMS5003;49185;42.320;23.198;2024-03-23T12:59:25;3256.50;3256.50;3256.50
72031;PMS5003;49185;42.320;23.198;2024-03-23T13:02:10;3264.50;3264.50;3264.50
72031;PMS5003;49185;42.320;23.198;2024-03-23T13:04:56;3246.50;3246.50;3246.50
72031;PMS5003;49185;42.320;23.198;2024-03-23T13:07:41;3275.00;3275.00;3275.00
72031;PMS5003;49185;42.320;23.198;2024-03-23T13:10:27;3267.50;3267.50;3267.50
72031;PMS5003;49185;42.320;23.198;2024-03-23T13:13:13;3287.50;3287.50;3287.50
72031;PMS5003;49185;42.320;23.198;2024-03-23T13:15:58;3272.50;3272.50;3272.50
72031;PMS5003;49185;42.320;23.198;2024-03-23T13:18:44;3282.50;3282.50;3282.50
72031;PMS5003;49185;42.320;23.198;2024-03-23T13:21:30;3275.00;3275.00;3275.00
72031;PMS5003;49185;42.320;23.198;2024-03-23T13:24:15;3277.50;3277.50;3277.50
72031;PMS5003;49185;42.320;23.198;2024-03-23T13:27:01;3259.50;3259.50;3259.50
72031;PMS5003;49185;42.320;23.198;2024-03-23T13:29:46;3246.50;3246.50;3246.50
72031;PMS5003;49185;42.320;23.198;2024-03-23T13:32:32;3249.00;3249.00;3249.00
72031;PMS5003;49185;42.320;23.198;2024-03-23T13:35:18;3317.00;3317.00;3317.00
72031;PMS5003;49185;42.320;23.198;2024-03-23T13:38:03;3216.50;3216.50;3216.50
72031;PMS5003;49185;42.320;23.198;2024-03-23T13:40:53;3262.00;3262.00;3262.00
72031;PMS5003;49185;42.320;23.198;2024-03-23T13:43:42;3264.50;3264.50;3264.50
72031;PMS5003;49185;42.320;23.198;2024-03-23T13:46:28;3285.00;3285.00;3285.00
72031;PMS5003;49185;42.320;23.198;2024-03-23T13:52:12;3280.50;3280.50;3280.50
72031;PMS5003;49185;42.320;23.198;2024-03-23T13:54:58;3234.00;3234.00;3234.00
72031;PMS5003;49185;42.320;23.198;2024-03-23T13:57:44;3254.50;3254.50;3254.50
72031;PMS5003;49185;42.320;23.198;2024-03-23T14:00:29;3262.00;3262.00;3262.00
72031;PMS5003;49185;42.320;23.198;2024-03-23T14:03:15;3251.50;3251.50;3251.50
72031;PMS5003;49185;42.320;23.198;2024-03-23T14:06:01;3327.00;3327.00;3327.00
72031;PMS5003;49185;42.320;23.198;2024-03-23T14:08:46;3241.50;3241.50;3241.50
72031;PMS5003;49185;42.320;23.198;2024-03-23T14:11:35;3254.00;3254.00;3254.00
72031;PMS5003;49185;42.320;23.198;2024-03-23T14:14:21;3256.50;3256.50;3256.50
72031;PMS5003;49185;42.320;23.198;2024-03-23T14:17:07;3262.00;3262.00;3262.00
72031;PMS5003;49185;42.320;23.198;2024-03-23T14:19:52;3262.00;3262.00;3262.00
72031;PMS5003;49185;42.320;23.198;2024-03-23T14:22:18;3276.67;3276.67;3276.67
72031;PMS5003;49185;42.320;23.198;2024-03-23T14:24:43;3314.67;3314.67;3314.67
72031;PMS5003;49185;42.320;23.198;2024-03-23T14:27:08;3272.00;3272.00;3272.00
72031;PMS5003;49185;42.320;23.198;2024-03-23T14:29:34;3219.33;3219.33;3219.33
72031;PMS5003;49185;42.320;23.198;2024-03-23T14:31:59;3170.33;3170.33;3170.33
72031;PMS5003;49185;42.320;23.198;2024-03-23T14:34:25;3204.33;3204.33;3204.33
72031;PMS5003;49185;42.320;23.198;2024-03-23T14:36:51;3151.00;3151.00;3151.00
72031;PMS5003;49185;42.320;23.198;2024-03-23T14:39:16;3237.33;3237.33;3237.33
72031;PMS5003;49185;42.320;23.198;2024-03-23T14:41:42;3244.00;3244.00;3244.00
72031;PMS5003;49185;42.320;23.198;2024-03-23T14:44:07;3263.00;3263.00;3263.00
72031;PMS5003;49185;42.320;23.198;2024-03-23T14:46:32;3269.67;3269.67;3269.67
72031;PMS5003;49185;42.320;23.198;2024-03-23T14:48:58;3242.33;3242.33;3242.33
72031;PMS5003;49185;42.320;23.198;2024-03-23T14:51:23;3232.33;3232.33;3232.33
72031;PMS5003;49185;42.320;23.198;2024-03-23T14:53:48;3244.00;3244.00;3244.00
72031;PMS5003;49185;42.320;23.198;2024-03-23T14:56:14;3222.33;3222.33;3222.33
72031;PMS5003;49185;42.320;23.198;2024-03-23T14:58:39;3255.67;3255.67;3255.67
72031;PMS5003;49185;42.320;23.198;2024-03-23T15:01:05;3292.33;3292.33;3292.33
72031;PMS5003;49185;42.320;23.198;2024-03-23T15:03:31;3185.00;3185.00;3185.00
72031;PMS5003;49185;42.320;23.198;2024-03-23T15:05:58;3217.33;3217.33;3217.33
72031;PMS5003;49185;42.320;23.198;2024-03-23T15:08:24;3267.00;3267.00;3267.00
72031;PMS5003;49185;42.320;23.198;2024-03-23T15:10:49;3225.67;3225.67;3225.67